Time;durP1;ratioP1;P1;durP2;ratioP2;P2;SDS_P1;SDS_P2;PMS_P1;PMS_P2;Temp;Humidity;BMP_temperature;BMP_pressure;BME280_temperature;BME280_humidity;BME280_pressure;Samples;Min_cycle;Max_cycle;Signal;HPM_P1;HPM_P2
2022/09/18 00:01:13;;;;;;;3.40;1.63;;;;;;;;;;5075555;28;20474;-59
2022/09/18 00:03:41;;;;;;;3.47;2.03;;;;;;;;;;5075133;28;20534;-59
2022/09/18 00:06:09;;;;;;;4.30;2.23;;;;;;;;;;5075144;28;20448;-60
2022/09/18 00:08:37;;;;;;;5.37;2.00;;;;;;;;;;5074951;28;20452;-60
2022/09/18 00:11:05;;;;;;;2.17;1.80;;;;;;;;;;5074246;28;20448;-59
2022/09/18 00:13:31;;;;;;;1.90;1.70;;;;;;;;;;5075019;28;20458;-60
2022/09/18 00:16:00;;;;;;;3.53;1.97;;;;;;;;;;5074957;28;20479;-59
2022/09/18 00:18:27;;;;;;;2.10;1.90;;;;;;;;;;5074957;28;20451;-60
2022/09/18 00:20:54;;;;;;;2.53;1.77;;;;;;;;;;5074809;28;20448;-59
2022/09/18 00:23:21;;;;;;;2.97;2.13;;;;;;;;;;5074642;28;20538;-59
2022/09/18 00:25:48;;;;;;;4.83;2.03;;;;;;;;;;5074726;28;20946;-60
2022/09/18 00:28:15;;;;;;;3.80;2.10;;;;;;;;;;5074773;28;20447;-59
2022/09/18 00:30:42;;;;;;;2.07;1.97;;;;;;;;;;5074713;28;20535;-59
2022/09/18 00:33:10;;;;;;;4.07;1.60;;;;;;;;;;5074551;28;20881;-59
2022/09/18 00:35:42;;;;;;;5.90;1.60;;;;;;;;;;5074489;28;20447;-60
2022/09/18 00:38:09;;;;;;;3.00;1.63;;;;;;;;;;5074423;28;20521;-59
2022/09/18 00:40:36;;;;;;;3.47;1.77;;;;;;;;;;5074537;28;20447;-59
2022/09/18 00:43:16;;;;;;;2.70;1.50;;;;;;;;;;5074383;28;20447;-59
2022/09/18 00:45:43;;;;;;;8.80;1.83;;;;;;;;;;5074308;28;20480;-59
2022/09/18 00:48:12;;;;;;;1.90;1.80;;;;;;;;;;5074011;28;20842;-60
2022/09/18 00:50:39;;;;;;;1.63;1.53;;;;;;;;;;5074156;28;20440;-59
2022/09/18 00:53:06;;;;;;;2.50;1.60;;;;;;;;;;5074251;28;20450;-59
2022/09/18 00:55:34;;;;;;;2.67;1.40;;;;;;;;;;5074081;28;20439;-59
2022/09/18 00:58:02;;;;;;;2.10;1.50;;;;;;;;;;5074115;28;20447;-59
2022/09/18 01:00:30;;;;;;;1.40;1.10;;;;;;;;;;5074047;28;20451;-59
2022/09/18 01:02:58;;;;;;;2.20;1.40;;;;;;;;;;5073809;28;20452;-58
2022/09/18 01:05:29;;;;;;;2.90;1.10;;;;;;;;;;5074010;28;20447;-59
2022/09/18 01:07:59;;;;;;;2.37;1.50;;;;;;;;;;5074057;28;20455;-59
2022/09/18 01:10:32;;;;;;;1.63;1.10;;;;;;;;;;5073949;28;20451;-59
2022/09/18 01:13:00;;;;;;;2.80;1.20;;;;;;;;;;5073913;28;20509;-59
2022/09/18 01:15:32;;;;;;;2.17;1.23;;;;;;;;;;5073687;28;20449;-59
2022/09/18 01:18:02;;;;;;;3.50;1.10;;;;;;;;;;5073628;28;20483;-59
2022/09/18 01:20:37;;;;;;;2.60;1.00;;;;;;;;;;5073420;28;20447;-59
2022/09/18 01:23:13;;;;;;;1.30;1.20;;;;;;;;;;5073714;28;20447;-59
2022/09/18 01:25:49;;;;;;;1.20;1.10;;;;;;;;;;5073661;28;20454;-60
2022/09/18 01:28:21;;;;;;;1.20;0.90;;;;;;;;;;5073781;28;20455;-59
2022/09/18 01:30:49;;;;;;;1.20;0.80;;;;;;;;;;5073666;28;20538;-59
2022/09/18 01:33:19;;;;;;;1.00;0.90;;;;;;;;;;5073529;28;20863;-59
2022/09/18 01:35:48;;;;;;;1.03;0.90;;;;;;;;;;5073358;28;20473;-59
2022/09/18 01:38:18;;;;;;;1.30;1.10;;;;;;;;;;5073253;28;20457;-59
2022/09/18 01:40:47;;;;;;;1.60;0.90;;;;;;;;;;5073479;28;20546;-58
2022/09/18 01:43:16;;;;;;;1.00;0.90;;;;;;;;;;5073352;28;20826;-59
2022/09/18 01:45:46;;;;;;;1.23;0.73;;;;;;;;;;5073304;28;20451;-59
2022/09/18 01:48:17;;;;;;;1.57;0.80;;;;;;;;;;5073049;28;20471;-59
2022/09/18 01:50:48;;;;;;;1.00;1.00;;;;;;;;;;5073149;28;20490;-59
2022/09/18 01:53:17;;;;;;;1.30;0.77;;;;;;;;;;5073285;28;20550;-59
2022/09/18 01:55:46;;;;;;;1.80;0.80;;;;;;;;;;5073263;28;20451;-58
2022/09/18 01:58:16;;;;;;;1.60;0.70;;;;;;;;;;5073084;28;20489;-59
2022/09/18 02:00:47;;;;;;;0.80;0.67;;;;;;;;;;5073077;28;20448;-58
2022/09/18 02:03:15;;;;;;;2.03;0.93;;;;;;;;;;5072851;28;20939;-59
2022/09/18 02:05:44;;;;;;;1.23;0.60;;;;;;;;;;5073138;28;20831;-59
2022/09/18 02:08:14;;;;;;;1.10;0.70;;;;;;;;;;5073110;28;21065;-58
2022/09/18 02:10:43;;;;;;;2.90;0.70;;;;;;;;;;5073039;28;20447;-59
2022/09/18 02:13:12;;;;;;;0.70;0.60;;;;;;;;;;5072886;28;20538;-60
2022/09/18 02:15:40;;;;;;;1.10;0.73;;;;;;;;;;5072874;28;20444;-60
2022/09/18 02:18:10;;;;;;;1.50;0.60;;;;;;;;;;5072653;28;20483;-60
2022/09/18 02:20:38;;;;;;;0.80;0.70;;;;;;;;;;5072739;28;20939;-59
2022/09/18 02:23:06;;;;;;;0.80;0.60;;;;;;;;;;5072787;28;20810;-60
2022/09/18 02:25:35;;;;;;;3.53;0.80;;;;;;;;;;5072769;28;20443;-59
2022/09/18 02:28:03;;;;;;;0.80;0.60;;;;;;;;;;5072762;28;20565;-60
2022/09/18 02:30:30;;;;;;;1.30;0.60;;;;;;;;;;5072633;28;20534;-59
2022/09/18 02:32:57;;;;;;;1.00;0.70;;;;;;;;;;5073756;28;20860;-60
2022/09/18 02:35:28;;;;;;;0.80;0.60;;;;;;;;;;5076995;28;21026;-59
2022/09/18 02:37:58;;;;;;;0.90;0.70;;;;;;;;;;5076771;28;20494;-60
2022/09/18 02:40:32;;;;;;;1.27;0.57;;;;;;;;;;5076740;28;20538;-59
2022/09/18 02:43:09;;;;;;;0.90;0.70;;;;;;;;;;5076609;28;20802;-60
2022/09/18 02:45:39;;;;;;;2.30;0.60;;;;;;;;;;5076820;28;20451;-60
2022/09/18 02:48:11;;;;;;;0.60;0.50;;;;;;;;;;5076574;28;20471;-59
2022/09/18 02:50:44;;;;;;;1.73;0.90;;;;;;;;;;5076615;28;20450;-59
2022/09/18 02:53:17;;;;;;;0.70;0.70;;;;;;;;;;5076358;28;20469;-60
2022/09/18 02:55:46;;;;;;;0.80;0.70;;;;;;;;;;5076682;28;20457;-59
2022/09/18 02:58:15;;;;;;;1.20;0.63;;;;;;;;;;5076392;28;20489;-60
2022/09/18 03:00:43;;;;;;;1.17;1.00;;;;;;;;;;5076405;28;20818;-59
2022/09/18 03:03:11;;;;;;;1.83;0.77;;;;;;;;;;5076270;28;20447;-60
2022/09/18 03:05:39;;;;;;;1.70;0.70;;;;;;;;;;5076192;28;20446;-59
2022/09/18 03:08:06;;;;;;;0.80;0.60;;;;;;;;;;5076204;28;20830;-59
2022/09/18 03:10:33;;;;;;;1.30;0.70;;;;;;;;;;5076439;28;20446;-59
2022/09/18 03:13:00;;;;;;;1.23;0.90;;;;;;;;;;5076179;28;20455;-59
2022/09/18 03:15:28;;;;;;;1.57;0.90;;;;;;;;;;5076155;28;20459;-58
2022/09/18 03:17:54;;;;;;;1.00;0.80;;;;;;;;;;5075956;28;20558;-59
2022/09/18 03:20:21;;;;;;;1.40;0.80;;;;;;;;;;5075939;28;20447;-59
2022/09/18 03:22:50;;;;;;;3.90;0.90;;;;;;;;;;5076032;28;20869;-59
2022/09/18 03:25:17;;;;;;;2.90;1.03;;;;;;;;;;5075997;28;20538;-59
2022/09/18 03:27:43;;;;;;;1.50;1.40;;;;;;;;;;5075856;28;20447;-59
2022/09/18 03:30:11;;;;;;;2.40;1.33;;;;;;;;;;5075890;28;20883;-59
2022/09/18 03:32:38;;;;;;;2.90;1.47;;;;;;;;;;5075625;28;20479;-59
2022/09/18 03:35:06;;;;;;;3.80;1.50;;;;;;;;;;5075635;28;20960;-59
2022/09/18 03:37:33;;;;;;;4.47;1.30;;;;;;;;;;5075765;28;20486;-59
2022/09/18 03:40:02;;;;;;;7.47;1.40;;;;;;;;;;5075754;28;20483;-59
2022/09/18 03:42:29;;;;;;;4.40;1.30;;;;;;;;;;5075568;28;20448;-59
2022/09/18 03:44:56;;;;;;;6.53;1.80;;;;;;;;;;5075379;28;20542;-58
2022/09/18 03:47:23;;;;;;;6.03;1.13;;;;;;;;;;5075213;28;20483;-59
2022/09/18 03:49:50;;;;;;;4.57;1.37;;;;;;;;;;5075667;28;20466;-59
2022/09/18 03:52:18;;;;;;;4.70;1.40;;;;;;;;;;5075511;28;20894;-59
2022/09/18 03:54:46;;;;;;;6.43;1.63;;;;;;;;;;5075390;28;20436;-59
2022/09/18 03:57:14;;;;;;;4.90;1.63;;;;;;;;;;5075199;28;20507;-59
2022/09/18 03:59:41;;;;;;;9.90;2.40;;;;;;;;;;5075263;28;20474;-59
2022/09/18 04:02:08;;;;;;;6.33;1.50;;;;;;;;;;5075068;28;20451;-59
2022/09/18 04:04:35;;;;;;;5.73;1.60;;;;;;;;;;5075214;28;20454;-59
2022/09/18 04:07:02;;;;;;;10.10;2.40;;;;;;;;;;5075277;28;20463;-59
2022/09/18 04:09:31;;;;;;;10.20;1.70;;;;;;;;;;5075155;28;20558;-59
2022/09/18 04:11:58;;;;;;;9.00;2.27;;;;;;;;;;5075041;28;20538;-59
2022/09/18 04:14:27;;;;;;;5.10;1.70;;;;;;;;;;5074919;28;20452;-59
2022/09/18 04:16:54;;;;;;;9.67;2.60;;;;;;;;;;5074722;28;20447;-58
2022/09/18 04:19:21;;;;;;;10.57;2.37;;;;;;;;;;5074977;28;20447;-58
2022/09/18 04:21:47;;;;;;;10.10;2.27;;;;;;;;;;5074845;28;20447;-59
2022/09/18 04:24:14;;;;;;;6.77;2.20;;;;;;;;;;5074698;28;20939;-59
2022/09/18 04:26:41;;;;;;;7.50;2.70;;;;;;;;;;5074745;28;20447;-58
2022/09/18 04:29:08;;;;;;;5.13;2.20;;;;;;;;;;5074609;28;20483;-59
2022/09/18 04:31:36;;;;;;;11.90;2.57;;;;;;;;;;5074780;28;20447;-59
2022/09/18 04:34:03;;;;;;;7.33;2.13;;;;;;;;;;5074666;28;20451;-59
2022/09/18 04:36:30;;;;;;;9.97;2.53;;;;;;;;;;5074564;28;20447;-59
2022/09/18 04:38:57;;;;;;;7.23;2.83;;;;;;;;;;5074370;28;20570;-58
2022/09/18 04:41:24;;;;;;;9.17;3.23;;;;;;;;;;5074343;28;20448;-59
2022/09/18 04:43:51;;;;;;;7.33;2.63;;;;;;;;;;5074218;28;20491;-59
2022/09/18 04:46:18;;;;;;;8.23;2.33;;;;;;;;;;5074409;28;20450;-59
2022/09/18 04:48:48;;;;;;;4.33;1.83;;;;;;;;;;5074090;28;20479;-59
2022/09/18 04:51:15;;;;;;;8.50;2.40;;;;;;;;;;5074418;28;20448;-59
2022/09/18 04:53:42;;;;;;;8.93;2.77;;;;;;;;;;5074224;28;20448;-58
2022/09/18 04:56:09;;;;;;;9.60;2.40;;;;;;;;;;5073383;28;20957;-59
2022/09/18 04:58:36;;;;;;;11.27;2.70;;;;;;;;;;5074186;28;20927;-59
2022/09/18 05:01:03;;;;;;;9.03;3.30;;;;;;;;;;5074132;28;20454;-59
2022/09/18 05:03:30;;;;;;;6.47;2.83;;;;;;;;;;5073857;28;20554;-59
2022/09/18 05:05:58;;;;;;;6.10;2.20;;;;;;;;;;5073981;28;20447;-59
2022/09/18 05:08:25;;;;;;;5.70;2.47;;;;;;;;;;5073846;28;20810;-59
2022/09/18 05:10:52;;;;;;;5.07;2.27;;;;;;;;;;5073765;28;20459;-59
2022/09/18 05:13:19;;;;;;;7.67;2.83;;;;;;;;;;5073865;28;20535;-59
2022/09/18 05:15:46;;;;;;;7.47;2.83;;;;;;;;;;5073832;28;20938;-58
2022/09/18 05:18:13;;;;;;;8.50;2.73;;;;;;;;;;5073679;28;20526;-59
2022/09/18 05:20:40;;;;;;;8.47;2.77;;;;;;;;;;5073697;28;20455;-59
2022/09/18 05:23:08;;;;;;;10.07;3.43;;;;;;;;;;5073522;28;20450;-58
2022/09/18 05:25:35;;;;;;;8.60;2.63;;;;;;;;;;5073503;28;20895;-59
2022/09/18 05:28:03;;;;;;;3.80;2.17;;;;;;;;;;5073721;28;20853;-59
2022/09/18 05:30:30;;;;;;;6.67;2.90;;;;;;;;;;5073606;28;20526;-59
2022/09/18 05:32:58;;;;;;;9.30;2.30;;;;;;;;;;5073400;28;20470;-59
2022/09/18 05:35:27;;;;;;;6.67;1.73;;;;;;;;;;5073352;28;20829;-59
2022/09/18 05:37:54;;;;;;;9.00;2.40;;;;;;;;;;5073108;28;20474;-59
2022/09/18 05:40:23;;;;;;;5.97;1.90;;;;;;;;;;5073506;28;20443;-59
2022/09/18 05:42:52;;;;;;;2.27;1.57;;;;;;;;;;5073355;28;20448;-59
2022/09/18 05:45:19;;;;;;;6.17;1.90;;;;;;;;;;5073139;28;20942;-59
2022/09/18 05:47:53;;;;;;;5.93;1.93;;;;;;;;;;5073053;28;20479;-59
2022/09/18 05:50:21;;;;;;;3.80;1.97;;;;;;;;;;5073152;28;20452;-59
2022/09/18 05:52:48;;;;;;;8.60;1.60;;;;;;;;;;5072938;28;20961;-59
2022/09/18 05:55:15;;;;;;;5.97;2.00;;;;;;;;;;5073121;28;20447;-59
2022/09/18 05:57:43;;;;;;;6.20;2.00;;;;;;;;;;5073108;28;20521;-59
2022/09/18 06:00:11;;;;;;;4.80;1.50;;;;;;;;;;5072967;28;20962;-59
2022/09/18 06:02:37;;;;;;;2.53;1.53;;;;;;;;;;5073045;28;20992;-59
2022/09/18 06:05:05;;;;;;;3.57;2.07;;;;;;;;;;5072892;28;20564;-59
2022/09/18 06:07:32;;;;;;;3.50;2.07;;;;;;;;;;5071969;28;21081;-60
2022/09/18 06:09:59;;;;;;;6.57;1.83;;;;;;;;;;5072966;28;20443;-59
2022/09/18 06:12:25;;;;;;;8.27;1.60;;;;;;;;;;5072837;28;20447;-59
2022/09/18 06:14:54;;;;;;;4.50;1.73;;;;;;;;;;5072903;28;20447;-59
2022/09/18 06:17:21;;;;;;;4.57;1.53;;;;;;;;;;5072751;28;20450;-60
2022/09/18 06:19:49;;;;;;;7.00;2.03;;;;;;;;;;5073014;28;20458;-59
2022/09/18 06:22:16;;;;;;;2.73;1.53;;;;;;;;;;5072631;28;20454;-60
2022/09/18 06:24:43;;;;;;;6.87;2.00;;;;;;;;;;5072851;28;20457;-60
2022/09/18 06:27:09;;;;;;;4.40;1.40;;;;;;;;;;5072750;28;20447;-59
2022/09/18 06:29:36;;;;;;;10.27;1.77;;;;;;;;;;5072699;28;20930;-60
2022/09/18 06:32:05;;;;;;;10.33;1.83;;;;;;;;;;5072522;28;20482;-59
2022/09/18 06:34:32;;;;;;;4.50;1.50;;;;;;;;;;5072842;28;20444;-59
2022/09/18 06:36:59;;;;;;;6.93;1.30;;;;;;;;;;5072702;28;20538;-60
2022/09/18 06:39:26;;;;;;;6.17;1.70;;;;;;;;;;5072585;28;20483;-60
2022/09/18 06:41:53;;;;;;;4.30;1.57;;;;;;;;;;5072630;28;20903;-59
2022/09/18 06:44:20;;;;;;;5.17;1.50;;;;;;;;;;5072562;28;20810;-59
2022/09/18 06:46:47;;;;;;;4.80;1.70;;;;;;;;;;5072405;28;20454;-59
2022/09/18 06:49:15;;;;;;;7.20;1.77;;;;;;;;;;5072629;28;20443;-59
2022/09/18 06:51:44;;;;;;;7.90;1.60;;;;;;;;;;5072529;28;20453;-59
2022/09/18 06:54:12;;;;;;;5.73;1.97;;;;;;;;;;5072508;28;20451;-59
2022/09/18 06:56:39;;;;;;;6.17;1.67;;;;;;;;;;5072538;28;20529;-59
2022/09/18 06:59:06;;;;;;;8.73;1.80;;;;;;;;;;5072237;28;20933;-60
2022/09/18 07:01:32;;;;;;;3.67;1.60;;;;;;;;;;5072518;28;20443;-59
2022/09/18 07:03:59;;;;;;;7.70;1.70;;;;;;;;;;5072546;28;20545;-59
2022/09/18 07:06:28;;;;;;;8.40;1.90;;;;;;;;;;5072387;28;20459;-59
2022/09/18 07:08:56;;;;;;;7.47;1.87;;;;;;;;;;5072390;28;20447;-59
2022/09/18 07:11:22;;;;;;;7.77;1.83;;;;;;;;;;5072241;28;20796;-59
2022/09/18 07:13:50;;;;;;;3.73;1.23;;;;;;;;;;5072075;28;20454;-59
2022/09/18 07:16:17;;;;;;;5.07;1.87;;;;;;;;;;5072348;28;20458;-59
2022/09/18 07:18:45;;;;;;;7.90;1.63;;;;;;;;;;5072868;28;20479;-60
2022/09/18 07:21:12;;;;;;;9.40;2.40;;;;;;;;;;5075952;28;20457;-59
2022/09/18 07:23:40;;;;;;;8.23;1.87;;;;;;;;;;5075774;28;20802;-59
2022/09/18 07:26:07;;;;;;;4.23;2.10;;;;;;;;;;5075730;28;20542;-59
2022/09/18 07:28:34;;;;;;;10.33;1.40;;;;;;;;;;5075951;28;20573;-59
2022/09/18 07:31:03;;;;;;;4.97;1.37;;;;;;;;;;5075808;28;20473;-59
2022/09/18 07:33:30;;;;;;;8.07;1.60;;;;;;;;;;5075763;28;20875;-59
2022/09/18 07:35:59;;;;;;;5.33;1.63;;;;;;;;;;5075652;28;20544;-59
2022/09/18 07:38:26;;;;;;;9.50;1.83;;;;;;;;;;5075537;28;20574;-59
2022/09/18 07:40:55;;;;;;;5.30;1.30;;;;;;;;;;5075447;28;20537;-59
2022/09/18 07:43:21;;;;;;;4.93;1.57;;;;;;;;;;5075556;28;20447;-60
2022/09/18 07:45:48;;;;;;;3.87;1.30;;;;;;;;;;5075551;28;20450;-59
2022/09/18 07:48:16;;;;;;;8.23;1.70;;;;;;;;;;5075253;28;21002;-59
2022/09/18 07:50:45;;;;;;;8.73;2.40;;;;;;;;;;5075361;28;20454;-59
2022/09/18 07:53:12;;;;;;;6.33;3.40;;;;;;;;;;5075126;28;20466;-59
2022/09/18 07:55:41;;;;;;;3.63;1.77;;;;;;;;;;5075124;28;20454;-59
2022/09/18 07:58:09;;;;;;;8.60;1.77;;;;;;;;;;5075148;28;20544;-59
2022/09/18 08:00:37;;;;;;;5.13;1.73;;;;;;;;;;5075363;28;20443;-59
2022/09/18 08:03:06;;;;;;;9.93;2.43;;;;;;;;;;5074974;28;20475;-59
2022/09/18 08:05:33;;;;;;;6.30;1.30;;;;;;;;;;5075023;28;20443;-59
2022/09/18 08:08:03;;;;;;;4.90;1.20;;;;;;;;;;5074972;28;20538;-59
2022/09/18 08:10:31;;;;;;;2.53;1.70;;;;;;;;;;5075187;28;20446;-59
2022/09/18 08:12:57;;;;;;;4.87;1.80;;;;;;;;;;5074797;28;20447;-58
2022/09/18 08:15:26;;;;;;;5.17;1.27;;;;;;;;;;5074825;28;20468;-59
2022/09/18 08:17:53;;;;;;;2.30;1.40;;;;;;;;;;5074789;28;20448;-59
2022/09/18 08:20:20;;;;;;;6.63;1.23;;;;;;;;;;5074456;28;20539;-59
2022/09/18 08:22:47;;;;;;;6.10;1.53;;;;;;;;;;5074733;28;20497;-59
2022/09/18 08:25:14;;;;;;;1.73;1.20;;;;;;;;;;5074881;28;20455;-59
2022/09/18 08:27:41;;;;;;;3.73;1.47;;;;;;;;;;5074892;28;20484;-59
2022/09/18 08:30:10;;;;;;;2.93;1.20;;;;;;;;;;5073908;28;20989;-59
2022/09/18 08:32:38;;;;;;;5.27;1.50;;;;;;;;;;5074292;28;20455;-59
2022/09/18 08:35:05;;;;;;;6.10;1.60;;;;;;;;;;5074363;28;20791;-59
2022/09/18 08:37:32;;;;;;;6.40;1.90;;;;;;;;;;5074590;28;20541;-59
2022/09/18 08:39:59;;;;;;;3.37;1.30;;;;;;;;;;5074467;28;20548;-59
2022/09/18 08:42:29;;;;;;;6.47;1.50;;;;;;;;;;5074257;28;20447;-59
2022/09/18 08:44:59;;;;;;;8.30;1.90;;;;;;;;;;5074224;28;20454;-59
2022/09/18 08:47:30;;;;;;;5.90;1.90;;;;;;;;;;5073989;28;20479;-59
2022/09/18 08:50:01;;;;;;;4.90;2.70;;;;;;;;;;5074267;28;20448;-59
2022/09/18 08:52:30;;;;;;;18.27;2.33;;;;;;;;;;5074190;28;20486;-59
2022/09/18 08:54:59;;;;;;;4.67;1.40;;;;;;;;;;5074122;28;20479;-59
2022/09/18 08:57:29;;;;;;;7.63;1.50;;;;;;;;;;5073889;28;20806;-59
2022/09/18 08:59:58;;;;;;;5.30;1.60;;;;;;;;;;5073735;28;20483;-59
2022/09/18 09:02:33;;;;;;;8.70;2.00;;;;;;;;;;5073730;28;20443;-58
2022/09/18 09:05:03;;;;;;;5.20;1.40;;;;;;;;;;5073835;28;20451;-59
2022/09/18 09:07:37;;;;;;;3.20;1.30;;;;;;;;;;5073752;28;20462;-58
2022/09/18 09:10:10;;;;;;;5.97;1.53;;;;;;;;;;5073652;28;20450;-59
2022/09/18 09:12:43;;;;;;;3.87;1.37;;;;;;;;;;5073530;28;20452;-59
2022/09/18 09:15:18;;;;;;;4.20;1.60;;;;;;;;;;5073731;28;20452;-58
2022/09/18 09:17:49;;;;;;;3.13;1.00;;;;;;;;;;5073611;28;20533;-59
2022/09/18 09:20:21;;;;;;;8.70;2.27;;;;;;;;;;5073518;28;20487;-59
2022/09/18 09:22:52;;;;;;;3.10;1.30;;;;;;;;;;5073414;28;20481;-59
2022/09/18 09:25:20;;;;;;;3.90;1.07;;;;;;;;;;5073255;28;20787;-59
2022/09/18 09:27:49;;;;;;;4.90;1.20;;;;;;;;;;5073445;28;20458;-59
2022/09/18 09:30:17;;;;;;;11.73;2.23;;;;;;;;;;5073297;28;20448;-59
2022/09/18 09:32:47;;;;;;;9.80;1.20;;;;;;;;;;5073226;28;20759;-59
2022/09/18 09:35:21;;;;;;;4.27;1.50;;;;;;;;;;5073323;28;20458;-59
2022/09/18 09:37:49;;;;;;;3.50;0.97;;;;;;;;;;5073150;28;20914;-59
2022/09/18 09:40:18;;;;;;;3.30;1.37;;;;;;;;;;5073436;28;20483;-59
2022/09/18 09:42:48;;;;;;;5.90;1.30;;;;;;;;;;5073251;28;20447;-59
2022/09/18 09:45:16;;;;;;;2.03;1.00;;;;;;;;;;5073101;28;20534;-59
2022/09/18 09:47:45;;;;;;;6.30;1.70;;;;;;;;;;5072830;28;21013;-59
2022/09/18 09:50:29;;;;;;;4.57;1.27;;;;;;;;;;5073092;28;20794;-59
2022/09/18 09:52:57;;;;;;;4.80;1.33;;;;;;;;;;5072835;28;20485;-58
2022/09/18 09:55:27;;;;;;;2.43;1.13;;;;;;;;;;5072886;28;20443;-59
2022/09/18 09:58:00;;;;;;;2.90;0.97;;;;;;;;;;5073342;28;20448;-59
2022/09/18 10:00:28;;;;;;;2.97;1.57;;;;;;;;;;5072728;28;20564;-59
2022/09/18 10:03:01;;;;;;;4.50;1.40;;;;;;;;;;5072837;28;20458;-59
2022/09/18 10:05:31;;;;;;;3.53;0.90;;;;;;;;;;5072979;28;20451;-59
2022/09/18 10:08:01;;;;;;;3.50;1.17;;;;;;;;;;5072799;28;20459;-59
2022/09/18 10:10:31;;;;;;;10.30;1.30;;;;;;;;;;5072625;28;20596;-59
2022/09/18 10:13:01;;;;;;;4.90;1.63;;;;;;;;;;5072236;28;20893;-59
2022/09/18 10:15:31;;;;;;;4.80;0.83;;;;;;;;;;5072694;28;20541;-58
2022/09/18 10:18:00;;;;;;;2.90;1.03;;;;;;;;;;5072585;28;20981;-58
2022/09/18 10:20:28;;;;;;;3.53;1.20;;;;;;;;;;5072956;28;20487;-59
2022/09/18 10:22:59;;;;;;;3.23;1.53;;;;;;;;;;5072642;28;20448;-59
2022/09/18 10:25:28;;;;;;;5.27;1.33;;;;;;;;;;5072687;28;20544;-59
2022/09/18 10:27:55;;;;;;;5.33;1.20;;;;;;;;;;5072670;28;20450;-59
2022/09/18 10:30:22;;;;;;;2.40;1.00;;;;;;;;;;5072590;28;20458;-59
2022/09/18 10:32:49;;;;;;;3.20;1.00;;;;;;;;;;5072390;28;21029;-59
2022/09/18 10:35:34;;;;;;;4.10;1.23;;;;;;;;;;5072467;28;20474;-58
2022/09/18 10:38:03;;;;;;;2.53;1.13;;;;;;;;;;5072339;28;20777;-59
2022/09/18 10:40:31;;;;;;;2.40;1.10;;;;;;;;;;5072389;28;20961;-59
2022/09/18 10:42:59;;;;;;;3.40;0.97;;;;;;;;;;5072227;28;20550;-59
2022/09/18 10:45:27;;;;;;;3.83;1.20;;;;;;;;;;5072398;28;20539;-58
2022/09/18 10:48:03;;;;;;;3.83;1.10;;;;;;;;;;5071886;28;20479;-58
2022/09/18 10:50:31;;;;;;;1.80;0.93;;;;;;;;;;5071953;28;20986;-59
2022/09/18 10:53:15;;;;;;;2.70;1.10;;;;;;;;;;5072450;28;20451;-59
2022/09/18 10:55:49;;;;;;;4.67;1.33;;;;;;;;;;5076145;28;20445;-59
2022/09/18 10:58:16;;;;;;;2.53;1.20;;;;;;;;;;5076043;28;20510;-59
2022/09/18 11:00:47;;;;;;;5.30;1.20;;;;;;;;;;5076076;28;20521;-59
2022/09/18 11:03:19;;;;;;;4.63;1.70;;;;;;;;;;5075957;28;20456;-59
2022/09/18 11:05:50;;;;;;;4.50;1.13;;;;;;;;;;5076268;28;20453;-58
2022/09/18 11:08:20;;;;;;;4.90;1.40;;;;;;;;;;5075925;28;20479;-59
2022/09/18 11:10:49;;;;;;;2.60;1.07;;;;;;;;;;5076007;28;20451;-59
2022/09/18 11:13:20;;;;;;;2.03;1.23;;;;;;;;;;5075744;28;20443;-59
2022/09/18 11:15:52;;;;;;;3.40;2.23;;;;;;;;;;5075930;28;20453;-60
2022/09/18 11:18:19;;;;;;;3.97;1.20;;;;;;;;;;5075856;28;20455;-59
2022/09/18 11:20:47;;;;;;;3.80;1.40;;;;;;;;;;5075771;28;20479;-59
2022/09/18 11:23:15;;;;;;;1.60;1.00;;;;;;;;;;5075632;28;20524;-59
2022/09/18 11:25:44;;;;;;;1.60;1.00;;;;;;;;;;5075503;28;20447;-59
2022/09/18 11:28:21;;;;;;;2.10;0.87;;;;;;;;;;5075833;28;20451;-59
2022/09/18 11:30:55;;;;;;;5.63;1.30;;;;;;;;;;5075563;28;20450;-58
2022/09/18 11:33:24;;;;;;;3.40;0.90;;;;;;;;;;5075361;28;20457;-59
2022/09/18 11:35:55;;;;;;;4.10;1.40;;;;;;;;;;5075573;28;20542;-59
2022/09/18 11:38:22;;;;;;;2.57;1.20;;;;;;;;;;5075407;28;20443;-59
2022/09/18 11:40:51;;;;;;;3.83;1.87;;;;;;;;;;5075336;28;20505;-59
2022/09/18 11:43:22;;;;;;;4.47;1.47;;;;;;;;;;5075291;28;20899;-59
2022/09/18 11:45:56;;;;;;;3.00;1.67;;;;;;;;;;5074777;28;20458;-59
2022/09/18 11:48:26;;;;;;;3.17;0.97;;;;;;;;;;5075243;28;20471;-59
2022/09/18 11:50:55;;;;;;;2.90;1.67;;;;;;;;;;5075037;28;20792;-59
2022/09/18 11:53:23;;;;;;;1.60;0.90;;;;;;;;;;5075113;28;20463;-59
2022/09/18 11:55:53;;;;;;;2.00;1.13;;;;;;;;;;5075191;28;20453;-59
2022/09/18 11:58:22;;;;;;;3.33;1.23;;;;;;;;;;5075119;28;20867;-59
2022/09/18 12:00:51;;;;;;;3.13;0.70;;;;;;;;;;5075243;28;20483;-59
2022/09/18 12:03:24;;;;;;;4.30;1.00;;;;;;;;;;5074906;28;20448;-59
2022/09/18 12:05:54;;;;;;;2.80;1.93;;;;;;;;;;5073695;28;20539;-59
2022/09/18 12:08:24;;;;;;;3.67;1.30;;;;;;;;;;5074804;28;20481;-58
2022/09/18 12:10:56;;;;;;;1.33;0.80;;;;;;;;;;5074937;28;20455;-58
2022/09/18 12:13:29;;;;;;;2.77;1.17;;;;;;;;;;5074666;28;20455;-58
2022/09/18 12:16:00;;;;;;;4.40;2.00;;;;;;;;;;5074647;28;20448;-59
2022/09/18 12:18:31;;;;;;;1.23;1.00;;;;;;;;;;5074771;28;20452;-59
2022/09/18 12:21:00;;;;;;;4.90;1.10;;;;;;;;;;5074546;28;20483;-58
2022/09/18 12:23:27;;;;;;;2.27;0.90;;;;;;;;;;5074444;28;20451;-58
2022/09/18 12:26:04;;;;;;;1.53;1.13;;;;;;;;;;5074624;28;20454;-58
2022/09/18 12:28:34;;;;;;;4.30;0.93;;;;;;;;;;5074350;28;20538;-58
2022/09/18 12:31:14;;;;;;;1.67;1.13;;;;;;;;;;5074595;28;20454;-58
2022/09/18 12:33:47;;;;;;;4.43;1.93;;;;;;;;;;5074285;28;20451;-58
2022/09/18 12:36:37;;;;;;;2.33;1.10;;;;;;;;;;5074308;28;20493;-58
2022/09/18 12:39:10;;;;;;;5.53;1.43;;;;;;;;;;5074214;28;20953;-58
2022/09/18 12:41:48;;;;;;;4.20;1.40;;;;;;;;;;5074173;28;20500;-58
2022/09/18 12:44:21;;;;;;;5.17;1.30;;;;;;;;;;5073839;28;20470;-58
2022/09/18 12:46:56;;;;;;;2.23;0.90;;;;;;;;;;5073915;28;20458;-58
2022/09/18 12:49:31;;;;;;;1.70;0.90;;;;;;;;;;5074258;28;20755;-58
2022/09/18 12:52:04;;;;;;;0.93;0.70;;;;;;;;;;5074055;28;20558;-58
2022/09/18 12:54:43;;;;;;;1.83;0.70;;;;;;;;;;5074038;28;20451;-58
2022/09/18 12:57:18;;;;;;;1.20;0.80;;;;;;;;;;5074091;28;20475;-58
2022/09/18 12:59:51;;;;;;;1.20;0.70;;;;;;;;;;5073744;28;20485;-58
2022/09/18 13:02:23;;;;;;;0.97;0.70;;;;;;;;;;5073921;28;20452;-58
2022/09/18 13:04:55;;;;;;;1.40;1.00;;;;;;;;;;5073888;28;20470;-58
2022/09/18 13:07:25;;;;;;;1.83;0.70;;;;;;;;;;5074104;28;20447;-58
2022/09/18 13:09:55;;;;;;;1.63;0.83;;;;;;;;;;5073514;28;20459;-59
2022/09/18 13:12:25;;;;;;;0.80;0.70;;;;;;;;;;5073373;28;20470;-59
2022/09/18 13:14:55;;;;;;;1.37;0.70;;;;;;;;;;5073349;28;20501;-58
2022/09/18 13:17:24;;;;;;;2.37;0.80;;;;;;;;;;5073082;28;20450;-58
2022/09/18 13:19:55;;;;;;;1.30;0.80;;;;;;;;;;5073684;28;20482;-59
2022/09/18 13:22:23;;;;;;;1.10;0.90;;;;;;;;;;5073289;28;20451;-59
2022/09/18 13:24:51;;;;;;;3.93;1.33;;;;;;;;;;5073410;28;20563;-58
2022/09/18 13:27:20;;;;;;;1.47;0.90;;;;;;;;;;5073212;28;20935;-58
2022/09/18 13:29:56;;;;;;;1.00;0.67;;;;;;;;;;5073095;28;20447;-58
2022/09/18 13:32:24;;;;;;;1.43;0.70;;;;;;;;;;5073100;28;20459;-58
2022/09/18 13:34:53;;;;;;;1.87;0.80;;;;;;;;;;5072867;28;20946;-59
2022/09/18 13:37:22;;;;;;;4.67;1.10;;;;;;;;;;5072853;28;20810;-58
2022/09/18 13:39:50;;;;;;;1.20;0.80;;;;;;;;;;5072881;28;20439;-58
2022/09/18 13:42:27;;;;;;;2.13;0.90;;;;;;;;;;5072926;28;20454;-59
2022/09/18 13:44:54;;;;;;;2.50;1.17;;;;;;;;;;5072898;28;20803;-59
2022/09/18 13:47:23;;;;;;;4.20;0.93;;;;;;;;;;5072539;28;20843;-59
2022/09/18 13:49:52;;;;;;;2.63;1.00;;;;;;;;;;5072990;28;20458;-58
2022/09/18 13:52:41;;;;;;;4.47;1.10;;;;;;;;;;5072831;28;20469;-59
2022/09/18 13:55:24;;;;;;;2.73;1.30;;;;;;;;;;5072902;28;20822;-58
2022/09/18 13:57:52;;;;;;;3.03;1.10;;;;;;;;;;5072449;28;20447;-58
2022/09/18 14:00:37;;;;;;;3.10;1.00;;;;;;;;;;5072838;28;20471;-59
2022/09/18 14:03:19;;;;;;;1.70;1.00;;;;;;;;;;5072628;28;20811;-58
2022/09/18 14:05:46;;;;;;;1.53;0.83;;;;;;;;;;5072533;28;20486;-58
2022/09/18 14:08:35;;;;;;;1.37;1.00;;;;;;;;;;5072516;28;20504;-59
2022/09/18 14:11:07;;;;;;;3.43;0.90;;;;;;;;;;5072785;28;20455;-58
2022/09/18 14:13:36;;;;;;;1.97;1.10;;;;;;;;;;5072518;28;20461;-58
2022/09/18 14:16:05;;;;;;;1.43;0.97;;;;;;;;;;5072627;28;20853;-58
2022/09/18 14:18:35;;;;;;;2.33;1.03;;;;;;;;;;5072456;28;20458;-59
2022/09/18 14:21:14;;;;;;;4.97;1.90;;;;;;;;;;5072315;28;20575;-58
2022/09/18 14:24:11;;;;;;;3.57;1.43;;;;;;;;;;5072674;28;20787;-58
2022/09/18 14:27:08;;;;;;;2.03;1.83;;;;;;;;;;5072836;28;20443;-59
2022/09/18 14:29:36;;;;;;;2.00;1.57;;;;;;;;;;5029393;28;20446;-59
2022/09/18 14:32:04;;;;;;;2.33;0.93;;;;;;;;;;5062955;28;20451;-59
2022/09/18 14:34:36;;;;;;;1.70;1.17;;;;;;;;;;5072379;28;20453;-59
2022/09/18 14:37:16;;;;;;;1.83;1.10;;;;;;;;;;5072412;28;20447;-58
2022/09/18 14:39:43;;;;;;;2.60;1.37;;;;;;;;;;5072062;28;20545;-58
2022/09/18 14:42:12;;;;;;;1.43;1.10;;;;;;;;;;5072156;28;20579;-58
2022/09/18 14:44:47;;;;;;;4.53;1.10;;;;;;;;;;5072403;28;20462;-59
2022/09/18 14:47:20;;;;;;;2.37;1.10;;;;;;;;;;5071914;28;20985;-58
2022/09/18 14:49:48;;;;;;;1.73;1.47;;;;;;;;;;5072358;28;20451;-58
2022/09/18 14:52:19;;;;;;;3.30;0.93;;;;;;;;;;5072063;28;20475;-58
2022/09/18 14:54:47;;;;;;;5.47;1.70;;;;;;;;;;5072537;28;20455;-58
2022/09/18 14:57:15;;;;;;;8.10;3.67;;;;;;;;;;5072234;28;20451;-58